Time;durP1;ratioP1;P1;durP2;ratioP2;P2;SDS_P1;SDS_P2;PMS_P1;PMS_P2;Temp;Humidity;BMP_temperature;BMP_pressure;BME280_temperature;BME280_humidity;BME280_pressure;Samples;Min_cycle;Max_cycle;Signal;HPM_P1;HPM_P2
2023/08/29 00:00:32;;;;;;;4.30;0.50;;;;;;;16.27;59.39;100920.38;4971663;28;97117;-60
2023/08/29 00:02:57;;;;;;;0.83;0.60;;;;;;;16.23;59.43;100911.59;4971073;28;96655;-61
2023/08/29 00:05:23;;;;;;;0.80;0.57;;;;;;;16.18;59.35;100904.13;4968554;28;97329;-61
2023/08/29 00:07:48;;;;;;;0.70;0.70;;;;;;;16.15;59.25;100902.38;4972061;28;97096;-60
2023/08/29 00:10:13;;;;;;;0.87;0.50;;;;;;;16.10;59.44;100899.66;4968303;28;96721;-60
2023/08/29 00:12:42;;;;;;;2.13;0.90;;;;;;;16.07;59.35;100907.03;4973408;28;97316;-61
2023/08/29 00:15:09;;;;;;;0.77;0.73;;;;;;;16.03;59.31;100900.28;4966746;28;98431;-60
2023/08/29 00:17:35;;;;;;;0.60;0.60;;;;;;;16.00;59.20;100890.22;4970463;28;96823;-60
2023/08/29 00:20:01;;;;;;;0.70;0.53;;;;;;;16.00;59.27;100887.44;4972240;28;96898;-61
2023/08/29 00:22:27;;;;;;;1.47;0.77;;;;;;;15.95;59.32;100889.03;4969467;28;97385;-61
2023/08/29 00:24:52;;;;;;;1.23;0.83;;;;;;;15.92;59.34;100895.63;4966499;28;97073;-61
2023/08/29 00:27:19;;;;;;;0.90;0.73;;;;;;;15.89;59.44;100880.03;4965365;28;97254;-61
2023/08/29 00:29:44;;;;;;;1.10;0.70;;;;;;;15.88;59.42;100880.56;4969338;28;97088;-61
2023/08/29 00:32:10;;;;;;;0.60;0.60;;;;;;;15.88;59.50;100877.78;4969028;28;97026;-61
2023/08/29 00:34:36;;;;;;;1.73;0.60;;;;;;;15.85;59.50;100876.78;4970222;28;97017;-60
2023/08/29 00:37:01;;;;;;;0.70;0.70;;;;;;;15.83;59.55;100868.25;4966516;28;97011;-61
2023/08/29 00:39:26;;;;;;;0.70;0.70;;;;;;;15.80;59.19;100871.31;4968827;28;97245;-61
2023/08/29 00:41:52;;;;;;;0.60;0.50;;;;;;;15.75;59.21;100868.06;4972813;28;97359;-60
2023/08/29 00:44:18;;;;;;;0.70;0.57;;;;;;;15.68;59.32;100867.94;4967677;28;97534;-61
2023/08/29 00:46:44;;;;;;;3.30;0.77;;;;;;;15.63;59.40;100865.97;4963292;28;97060;-60
2023/08/29 00:49:13;;;;;;;0.70;0.70;;;;;;;15.62;59.36;100873.53;4966571;28;96854;-60
2023/08/29 00:51:39;;;;;;;0.93;0.50;;;;;;;15.59;59.52;100871.81;4964614;28;97491;-61
2023/08/29 00:54:06;;;;;;;0.70;0.57;;;;;;;15.57;59.61;100882.66;4963953;28;97101;-60
2023/08/29 00:56:31;;;;;;;0.60;0.60;;;;;;;15.57;59.59;100884.69;4967933;28;97084;-60
2023/08/29 00:58:58;;;;;;;0.60;0.57;;;;;;;15.56;59.48;100894.28;4973412;28;96984;-61
2023/08/29 01:01:23;;;;;;;0.50;0.40;;;;;;;15.55;59.61;100895.56;4967287;28;97104;-60
2023/08/29 01:03:48;;;;;;;1.30;0.60;;;;;;;15.54;59.75;100905.91;4968255;28;97193;-61
2023/08/29 01:06:14;;;;;;;0.60;0.50;;;;;;;15.54;59.62;100916.22;4969551;28;97251;-60
2023/08/29 01:08:43;;;;;;;0.67;0.60;;;;;;;15.54;59.79;100921.78;4970723;28;97251;-60
2023/08/29 01:11:33;;;;;;;0.63;0.60;;;;;;;15.53;59.93;100921.03;4971977;28;97244;-60
2023/08/29 01:14:15;;;;;;;2.00;0.73;;;;;;;15.49;60.03;100919.81;4966657;28;96798;-59
2023/08/29 01:16:48;;;;;;;1.47;0.67;;;;;;;15.47;59.78;100925.13;4963973;28;97109;-59
2023/08/29 01:19:15;;;;;;;0.70;0.50;;;;;;;15.47;59.78;100922.34;4969311;28;97269;-59
2023/08/29 01:22:07;;;;;;;1.20;0.60;;;;;;;15.44;59.98;100928.94;4972461;28;97240;-59
2023/08/29 01:24:44;;;;;;;0.70;0.60;;;;;;;15.40;59.84;100929.19;4967211;28;97049;-59
2023/08/29 01:27:11;;;;;;;4.47;0.80;;;;;;;15.36;59.81;100939.06;4975594;28;96943;-60
2023/08/29 01:29:37;;;;;;;1.10;0.57;;;;;;;15.35;59.69;100932.78;4966944;28;96863;-60
2023/08/29 01:32:04;;;;;;;1.10;0.70;;;;;;;15.34;59.76;100930.50;4973261;28;96784;-59
2023/08/29 01:34:30;;;;;;;0.63;0.63;;;;;;;15.28;59.71;100924.28;4972911;28;97237;-59
2023/08/29 01:36:56;;;;;;;0.70;0.70;;;;;;;15.25;59.79;100925.31;4969948;28;97176;-60
2023/08/29 01:39:21;;;;;;;0.80;0.77;;;;;;;15.21;59.71;100925.59;4970449;28;96801;-60
2023/08/29 01:41:46;;;;;;;0.73;0.60;;;;;;;15.10;59.71;100917.38;4975049;28;97281;-59
2023/08/29 01:44:12;;;;;;;0.80;0.73;;;;;;;15.10;59.62;100930.47;4971394;28;107271;-59
2023/08/29 01:46:37;;;;;;;1.00;0.70;;;;;;;15.04;59.54;100930.53;4967014;28;96979;-59
2023/08/29 01:49:03;;;;;;;0.90;0.90;;;;;;;15.01;59.77;100937.84;4971372;28;97212;-59
2023/08/29 01:51:29;;;;;;;1.07;0.73;;;;;;;14.96;59.67;100927.56;4968983;28;97866;-60
2023/08/29 01:53:56;;;;;;;4.77;0.83;;;;;;;14.94;59.79;100924.56;4965594;28;97287;-60
2023/08/29 01:56:25;;;;;;;0.60;0.60;;;;;;;14.93;59.78;100930.63;4974219;28;97067;-60
2023/08/29 01:58:54;;;;;;;1.00;0.80;;;;;;;14.89;59.71;100930.16;4966384;28;97302;-59
2023/08/29 02:01:20;;;;;;;1.47;0.50;;;;;;;14.87;59.70;100933.41;4974203;28;97038;-60
2023/08/29 02:03:45;;;;;;;1.83;0.60;;;;;;;14.85;59.55;100930.41;4970591;28;97428;-60
2023/08/29 02:06:11;;;;;;;1.70;1.10;;;;;;;14.83;59.75;100932.94;4974039;28;96838;-60
2023/08/29 02:08:37;;;;;;;0.63;0.60;;;;;;;14.80;59.74;100922.16;4972055;28;97061;-59
2023/08/29 02:11:03;;;;;;;0.50;0.50;;;;;;;14.75;59.81;100923.69;4978131;28;97340;-59
2023/08/29 02:13:28;;;;;;;0.60;0.57;;;;;;;14.73;59.90;100917.16;4977795;28;97776;-59
2023/08/29 02:15:53;;;;;;;0.80;0.67;;;;;;;14.71;59.92;100914.91;4975808;28;96782;-60
2023/08/29 02:18:19;;;;;;;1.30;1.00;;;;;;;14.71;60.00;100922.47;4968177;28;97093;-60
2023/08/29 02:20:44;;;;;;;0.70;0.70;;;;;;;14.70;60.00;100935.56;4973351;28;97091;-60
2023/08/29 02:23:10;;;;;;;0.97;0.87;;;;;;;14.72;60.16;100935.06;4967629;28;97771;-59
2023/08/29 02:25:35;;;;;;;0.63;0.63;;;;;;;14.73;60.21;100945.63;4969167;28;97058;-59
2023/08/29 02:28:00;;;;;;;0.70;0.70;;;;;;;14.77;60.31;100928.72;4971925;28;97359;-60
2023/08/29 02:30:26;;;;;;;1.17;0.83;;;;;;;14.81;60.24;100929.19;4978849;28;97310;-59
2023/08/29 02:32:51;;;;;;;1.80;0.50;;;;;;;14.83;60.25;100919.09;4970724;28;106522;-60
2023/08/29 02:35:16;;;;;;;0.73;0.73;;;;;;;14.86;60.32;100925.63;4972758;28;103652;-59
2023/08/29 02:37:41;;;;;;;1.83;0.70;;;;;;;14.86;60.21;100923.63;4975459;28;96805;-59
2023/08/29 02:40:08;;;;;;;0.60;0.60;;;;;;;14.88;60.17;100917.56;4968014;28;103753;-60
2023/08/29 02:42:34;;;;;;;1.67;1.03;;;;;;;14.84;60.09;100908.78;4969856;28;97125;-59
2023/08/29 02:44:59;;;;;;;0.80;0.50;;;;;;;14.81;60.20;100918.88;4967406;28;97766;-59
2023/08/29 02:47:25;;;;;;;0.90;0.90;;;;;;;14.81;60.00;100918.88;4969202;28;101474;-59
2023/08/29 02:49:50;;;;;;;0.70;0.70;;;;;;;14.75;60.10;100915.38;4967821;28;97299;-60
2023/08/29 02:52:15;;;;;;;0.60;0.60;;;;;;;14.74;60.17;100918.69;4965161;28;99801;-59
2023/08/29 02:54:41;;;;;;;0.50;0.50;;;;;;;14.73;60.23;100925.47;4968406;28;97367;-60
2023/08/29 02:57:07;;;;;;;0.97;0.97;;;;;;;14.74;60.34;100922.19;4963278;28;97113;-60
2023/08/29 02:59:32;;;;;;;0.83;0.83;;;;;;;14.76;60.49;100918.91;4967008;28;97356;-60
2023/08/29 03:02:00;;;;;;;0.70;0.70;;;;;;;14.76;60.40;100925.22;4964435;28;98063;-61
2023/08/29 03:04:25;;;;;;;1.37;0.87;;;;;;;14.77;60.33;100917.63;4968482;28;97160;-60
2023/08/29 03:06:51;;;;;;;1.67;0.70;;;;;;;14.75;60.51;100926.47;4967286;28;97087;-60
2023/08/29 03:09:16;;;;;;;0.87;0.70;;;;;;;14.75;60.44;100914.63;4969003;28;100092;-60
2023/08/29 03:11:42;;;;;;;0.90;0.70;;;;;;;14.74;60.39;100911.09;4962678;28;105757;-60
2023/08/29 03:14:07;;;;;;;0.60;0.60;;;;;;;14.74;60.42;100913.88;4962694;28;97053;-60
2023/08/29 03:16:32;;;;;;;0.60;0.50;;;;;;;14.73;60.32;100912.38;4964283;28;98700;-59
2023/08/29 03:18:58;;;;;;;0.97;0.50;;;;;;;14.74;60.32;100915.91;4970367;28;98166;-60
2023/08/29 03:21:23;;;;;;;0.63;0.57;;;;;;;14.73;60.24;100917.16;4966309;28;104270;-61
2023/08/29 03:23:48;;;;;;;0.67;0.67;;;;;;;14.73;60.35;100911.63;4969503;28;97191;-60
2023/08/29 03:26:14;;;;;;;1.53;0.80;;;;;;;14.70;60.39;100907.13;4969603;28;98640;-60
2023/08/29 03:28:39;;;;;;;0.73;0.60;;;;;;;14.71;60.29;100905.84;4968670;28;97113;-59
2023/08/29 03:31:12;;;;;;;1.40;0.70;;;;;;;14.69;60.49;100903.59;4968649;28;100090;-61
2023/08/29 03:33:38;;;;;;;0.90;0.90;;;;;;;14.68;60.35;100904.84;4967686;28;97336;-61
2023/08/29 03:36:05;;;;;;;1.37;0.70;;;;;;;14.65;60.37;100900.38;4971313;28;97023;-60
2023/08/29 03:38:30;;;;;;;1.13;0.70;;;;;;;14.65;60.47;100897.59;4968214;28;98555;-61
2023/08/29 03:40:57;;;;;;;0.80;0.70;;;;;;;14.65;60.44;100896.84;4969093;28;96751;-59
2023/08/29 03:43:23;;;;;;;0.53;0.50;;;;;;;14.63;60.46;100891.06;4967493;28;97121;-60
2023/08/29 03:45:57;;;;;;;0.80;0.60;;;;;;;14.65;60.69;100897.59;4971072;28;97094;-59
2023/08/29 03:48:23;;;;;;;1.33;0.80;;;;;;;14.64;60.55;100898.09;4971392;28;97179;-61
2023/08/29 03:50:49;;;;;;;1.53;0.73;;;;;;;14.65;60.50;100905.91;4948068;28;99339;-60
2023/08/29 03:53:14;;;;;;;0.90;0.70;;;;;;;14.68;60.59;100898.56;4963062;28;97133;-59
2023/08/29 03:55:39;;;;;;;0.80;0.73;;;;;;;14.67;60.62;100888.78;4969276;28;102922;-59
2023/08/29 03:58:05;;;;;;;1.27;1.17;;;;;;;14.66;60.48;100879.69;4964948;28;97281;-61
2023/08/29 04:00:31;;;;;;;6.40;1.07;;;;;;;14.62;60.35;100876.47;4969458;28;97583;-60
2023/08/29 04:02:56;;;;;;;2.20;0.80;;;;;;;14.58;60.38;100864.91;4967214;28;96904;-59
2023/08/29 04:05:21;;;;;;;1.13;1.03;;;;;;;14.50;60.32;100861.22;4971106;28;96800;-61
2023/08/29 04:07:47;;;;;;;0.77;0.77;;;;;;;14.47;60.39;100867.00;4964832;28;98053;-60
2023/08/29 04:10:12;;;;;;;0.80;0.80;;;;;;;14.43;60.54;100874.84;4967987;28;102932;-62
2023/08/29 04:12:37;;;;;;;1.40;1.30;;;;;;;14.41;60.78;100869.81;4968602;28;97347;-61
2023/08/29 04:15:03;;;;;;;0.80;0.80;;;;;;;14.44;60.71;100866.00;4967773;28;97342;-61
2023/08/29 04:17:29;;;;;;;0.97;0.93;;;;;;;14.44;60.62;100854.94;4966193;28;96767;-59
2023/08/29 04:19:54;;;;;;;0.97;0.80;;;;;;;14.42;60.65;100851.19;4969807;28;97742;-62
2023/08/29 04:22:19;;;;;;;1.17;1.00;;;;;;;14.40;60.58;100848.16;4966026;28;97428;-60
2023/08/29 04:24:45;;;;;;;0.87;0.87;;;;;;;14.39;60.67;100838.38;4971230;28;102495;-61
2023/08/29 04:27:11;;;;;;;1.23;0.90;;;;;;;14.40;60.74;100842.63;4967447;28;96799;-59
2023/08/29 04:29:36;;;;;;;0.87;0.87;;;;;;;14.41;60.78;100836.59;4969139;28;97077;-60
2023/08/29 04:32:01;;;;;;;1.43;0.93;;;;;;;14.42;60.72;100840.09;4968028;28;97421;-60
2023/08/29 04:34:27;;;;;;;1.00;1.00;;;;;;;14.40;60.81;100835.09;4963721;28;97170;-60
2023/08/29 04:36:52;;;;;;;1.83;1.23;;;;;;;14.42;60.71;100840.88;4966707;28;97228;-59
2023/08/29 04:39:20;;;;;;;1.40;0.90;;;;;;;14.42;60.84;100843.63;4968300;28;97934;-59
2023/08/29 04:41:46;;;;;;;2.07;1.00;;;;;;;14.43;60.76;100839.59;4967665;28;97451;-60
2023/08/29 04:44:11;;;;;;;5.00;1.03;;;;;;;14.44;60.82;100840.38;4969245;28;96932;-60
2023/08/29 04:46:36;;;;;;;1.77;1.20;;;;;;;14.45;60.85;100837.06;4968500;28;97189;-59
2023/08/29 04:49:03;;;;;;;1.53;1.30;;;;;;;14.44;60.64;100838.31;4968598;28;101600;-59
2023/08/29 04:51:29;;;;;;;1.00;1.00;;;;;;;14.44;60.78;100840.38;4965618;28;96681;-59
2023/08/29 04:53:54;;;;;;;1.30;1.20;;;;;;;14.43;60.84;100836.84;4970038;28;96701;-60
2023/08/29 04:56:19;;;;;;;2.03;0.83;;;;;;;14.45;60.89;100834.31;4969997;28;97270;-59
2023/08/29 04:58:45;;;;;;;1.43;1.33;;;;;;;14.47;60.98;100844.84;4970064;28;97234;-61
2023/08/29 05:01:10;;;;;;;1.00;1.00;;;;;;;14.49;60.98;100843.09;4967230;28;97160;-59
2023/08/29 05:03:35;;;;;;;1.40;1.30;;;;;;;14.51;61.02;100848.09;4968973;28;97047;-59
2023/08/29 05:06:00;;;;;;;1.10;1.10;;;;;;;14.50;60.95;100839.06;4967426;28;97479;-60
2023/08/29 05:08:26;;;;;;;1.20;1.10;;;;;;;14.52;60.86;100825.44;4964265;28;110719;-62
2023/08/29 05:10:51;;;;;;;1.30;1.17;;;;;;;14.55;60.96;100829.19;4962448;28;97351;-60
2023/08/29 05:13:16;;;;;;;0.97;0.87;;;;;;;14.57;61.03;100835.72;4965530;28;97005;-59
2023/08/29 05:15:43;;;;;;;1.10;1.10;;;;;;;14.60;61.07;100833.94;4971736;28;107050;-59
2023/08/29 05:18:08;;;;;;;1.30;1.30;;;;;;;14.62;61.17;100834.16;4968150;28;97113;-60
2023/08/29 05:20:33;;;;;;;1.77;1.30;;;;;;;14.65;61.19;100835.91;4970003;28;104836;-60
2023/08/29 05:22:59;;;;;;;2.00;1.23;;;;;;;14.71;61.17;100839.38;4968429;28;97288;-61
2023/08/29 05:25:24;;;;;;;1.23;1.20;;;;;;;14.74;61.19;100839.09;4965915;28;97133;-60
2023/08/29 05:27:50;;;;;;;1.10;1.10;;;;;;;14.78;61.24;100838.84;4969906;28;97888;-60
2023/08/29 05:30:15;;;;;;;1.67;1.20;;;;;;;14.83;61.39;100847.06;4966424;28;97130;-61
2023/08/29 05:32:40;;;;;;;1.17;1.17;;;;;;;14.88;61.27;100846.28;4968960;28;97439;-59
2023/08/29 05:35:08;;;;;;;1.63;1.53;;;;;;;14.90;61.22;100846.53;4967589;28;104480;-59
2023/08/29 05:37:34;;;;;;;1.43;1.40;;;;;;;14.92;61.13;100852.28;4967035;28;96726;-59
2023/08/29 05:39:59;;;;;;;2.40;1.40;;;;;;;14.95;61.36;100862.34;4970214;28;97122;-60
2023/08/29 05:42:26;;;;;;;1.47;1.37;;;;;;;14.98;61.35;100860.56;4968704;28;97267;-62
2023/08/29 05:44:51;;;;;;;2.33;1.63;;;;;;;15.03;61.43;100857.72;4970429;28;96986;-62
2023/08/29 05:47:17;;;;;;;1.73;1.63;;;;;;;15.07;61.22;100862.97;4966473;28;97158;-60
2023/08/29 05:49:42;;;;;;;1.67;1.57;;;;;;;15.12;61.57;100861.44;4962580;28;102832;-60
2023/08/29 05:52:08;;;;;;;1.83;1.73;;;;;;;15.18;61.50;100862.16;4968027;28;97680;-59
2023/08/29 05:54:36;;;;;;;1.60;1.50;;;;;;;15.21;61.57;100856.31;4966268;28;97724;-61
2023/08/29 05:57:02;;;;;;;1.43;1.33;;;;;;;15.27;61.52;100856.22;4971984;28;97178;-60
2023/08/29 05:59:27;;;;;;;1.50;1.40;;;;;;;15.30;61.57;100853.19;4966196;28;97359;-60
2023/08/29 06:01:53;;;;;;;1.77;1.67;;;;;;;15.32;61.59;100858.97;4966420;28;97747;-61
2023/08/29 06:04:18;;;;;;;1.83;1.73;;;;;;;15.35;61.65;100855.16;4971724;28;97883;-60
2023/08/29 06:06:43;;;;;;;3.30;2.10;;;;;;;15.38;61.67;100861.66;4971150;28;109180;-61
2023/08/29 06:09:09;;;;;;;1.93;1.83;;;;;;;15.43;61.82;100860.84;4971312;28;96934;-60
2023/08/29 06:11:34;;;;;;;1.97;1.87;;;;;;;15.48;61.72;100846.22;4968931;28;96692;-59
2023/08/29 06:14:01;;;;;;;2.20;2.10;;;;;;;15.55;61.79;100851.19;4969056;28;97076;-61
2023/08/29 06:16:26;;;;;;;2.33;2.17;;;;;;;15.59;61.82;100849.63;4969285;28;97105;-60
2023/08/29 06:18:51;;;;;;;2.23;2.13;;;;;;;15.63;61.91;100844.53;4967469;28;96664;-60
2023/08/29 06:21:17;;;;;;;3.30;2.23;;;;;;;15.66;61.84;100845.50;4964335;28;96993;-59
2023/08/29 06:23:42;;;;;;;2.63;2.47;;;;;;;15.71;61.90;100839.13;4967492;28;97895;-60
2023/08/29 06:26:08;;;;;;;2.40;2.20;;;;;;;15.76;61.83;100838.31;4964546;28;97347;-62
2023/08/29 06:28:33;;;;;;;2.10;2.00;;;;;;;15.80;61.94;100836.00;4963457;28;96881;-61
2023/08/29 06:31:04;;;;;;;2.10;2.00;;;;;;;15.85;62.12;100837.94;4965690;28;97133;-62
2023/08/29 06:33:30;;;;;;;2.60;2.40;;;;;;;15.88;61.96;100845.22;4960954;28;96663;-60
2023/08/29 06:35:55;;;;;;;2.90;2.70;;;;;;;15.92;61.96;100829.03;4961740;28;97283;-59
2023/08/29 06:38:22;;;;;;;2.63;2.43;;;;;;;15.96;62.07;100843.34;4966935;28;97188;-60
2023/08/29 06:40:54;;;;;;;2.90;2.70;;;;;;;16.03;62.29;100844.78;4968785;28;97061;-59
2023/08/29 06:43:19;;;;;;;2.90;2.70;;;;;;;16.09;62.11;100851.75;4966690;28;96946;-59
2023/08/29 06:45:44;;;;;;;2.23;2.13;;;;;;;16.14;62.09;100853.69;4962016;28;107667;-60
2023/08/29 06:48:10;;;;;;;2.67;2.57;;;;;;;16.19;62.26;100852.09;4965076;28;99040;-61
2023/08/29 06:50:36;;;;;;;6.30;2.57;;;;;;;16.25;62.19;100850.75;4961260;28;97167;-60
2023/08/29 06:53:01;;;;;;;2.80;2.50;;;;;;;16.31;62.16;100847.91;4967307;28;96905;-59
2023/08/29 06:55:27;;;;;;;2.77;2.60;;;;;;;16.35;62.25;100843.56;4967426;28;96790;-59
2023/08/29 06:57:52;;;;;;;2.57;2.47;;;;;;;16.41;62.31;100849.00;4964872;28;97507;-59
2023/08/29 07:00:22;;;;;;;2.40;2.30;;;;;;;16.46;62.26;100854.50;4964281;28;97529;-59
2023/08/29 07:02:47;;;;;;;2.30;2.20;;;;;;;16.54;62.21;100853.88;4964525;28;98137;-60
2023/08/29 07:05:13;;;;;;;2.20;2.10;;;;;;;16.61;62.27;100858.84;4962531;28;106374;-60
2023/08/29 07:07:40;;;;;;;2.70;2.50;;;;;;;16.66;62.22;100883.00;4964892;28;97222;-60
2023/08/29 07:10:06;;;;;;;2.87;2.67;;;;;;;16.73;62.31;100863.69;4968576;28;97270;-61
2023/08/29 07:12:31;;;;;;;2.60;2.40;;;;;;;16.78;62.21;100862.84;4964868;28;97865;-59
2023/08/29 07:14:57;;;;;;;2.90;2.70;;;;;;;16.85;62.26;100861.47;4963729;28;97167;-59
2023/08/29 07:17:22;;;;;;;2.50;2.33;;;;;;;16.89;62.19;100859.88;4968345;28;96942;-60
2023/08/29 07:19:47;;;;;;;3.00;2.80;;;;;;;16.94;62.35;100864.59;4970564;28;97213;-60
2023/08/29 07:22:13;;;;;;;2.37;2.17;;;;;;;17.02;62.24;100867.50;4967282;28;106739;-60
2023/08/29 07:24:39;;;;;;;3.20;3.00;;;;;;;17.07;62.10;100872.22;4968792;28;97208;-60
2023/08/29 07:27:06;;;;;;;2.97;2.77;;;;;;;17.13;62.10;100868.06;4964267;28;97201;-60
2023/08/29 07:29:31;;;;;;;4.93;2.80;;;;;;;17.17;62.19;100862.16;4968511;28;97518;-60
2023/08/29 07:31:56;;;;;;;3.67;3.37;;;;;;;17.24;62.15;100867.09;4967942;28;97119;-60
2023/08/29 07:34:23;;;;;;;2.70;2.50;;;;;;;17.28;62.21;100864.75;4965584;28;97770;-60
2023/08/29 07:36:48;;;;;;;2.93;2.73;;;;;;;17.34;62.29;100867.44;4966342;28;97348;-59
2023/08/29 07:39:16;;;;;;;3.00;2.80;;;;;;;17.44;62.40;100872.03;4966510;28;96880;-60
2023/08/29 07:41:41;;;;;;;3.30;3.10;;;;;;;17.50;62.24;100881.06;4967751;28;96892;-60
2023/08/29 07:44:06;;;;;;;4.07;3.77;;;;;;;17.58;62.27;100876.34;4965655;28;97312;-59
2023/08/29 07:46:32;;;;;;;3.00;2.77;;;;;;;17.63;62.12;100888.66;4971202;28;97310;-59
2023/08/29 07:48:57;;;;;;;2.77;2.57;;;;;;;17.68;62.16;100882.97;4967736;28;97211;-60
2023/08/29 07:51:23;;;;;;;3.40;3.20;;;;;;;17.78;62.07;100875.69;4969128;28;97013;-60
2023/08/29 07:53:49;;;;;;;2.67;2.57;;;;;;;17.90;62.34;100876.22;4969023;28;97196;-60
2023/08/29 07:56:14;;;;;;;2.70;2.50;;;;;;;17.96;62.29;100880.38;4970490;28;96889;-60
2023/08/29 07:58:39;;;;;;;2.00;1.83;;;;;;;18.11;62.28;100888.16;4970348;28;97374;-59
2023/08/29 08:01:05;;;;;;;2.00;1.90;;;;;;;18.21;62.15;100885.69;4968949;28;97372;-61
2023/08/29 08:03:30;;;;;;;2.03;1.83;;;;;;;18.29;61.88;100892.06;4965614;28;107695;-60
2023/08/29 08:05:56;;;;;;;1.50;1.40;;;;;;;18.36;61.86;100885.84;4969977;28;96899;-60
2023/08/29 08:08:22;;;;;;;1.53;1.43;;;;;;;18.43;61.83;100897.09;4972621;28;96608;-60
2023/08/29 08:10:47;;;;;;;2.20;1.40;;;;;;;18.54;61.88;100894.03;4970334;28;97776;-60
2023/08/29 08:13:12;;;;;;;1.27;1.17;;;;;;;18.61;61.54;100895.41;4970132;28;96757;-60
2023/08/29 08:15:38;;;;;;;3.00;1.13;;;;;;;18.76;61.50;100890.00;4970889;28;97408;-60
2023/08/29 08:18:03;;;;;;;1.27;1.17;;;;;;;18.87;61.67;100895.28;4971322;28;97000;-60
2023/08/29 08:20:28;;;;;;;1.33;1.23;;;;;;;19.00;61.16;100888.91;4966823;28;97089;-60
2023/08/29 08:22:54;;;;;;;1.83;1.10;;;;;;;19.11;61.08;100883.78;4968298;28;97134;-60
2023/08/29 08:25:19;;;;;;;1.10;1.00;;;;;;;19.23;60.99;100893.38;4965560;28;97118;-60
2023/08/29 08:27:44;;;;;;;0.90;0.90;;;;;;;19.39;61.03;100886.63;4966505;28;97406;-60
2023/08/29 08:30:10;;;;;;;1.23;0.80;;;;;;;19.52;60.90;100890.59;4967694;28;97207;-60
2023/08/29 08:32:36;;;;;;;0.60;0.50;;;;;;;19.67;60.77;100885.13;4967194;28;96792;-60
2023/08/29 08:35:04;;;;;;;1.57;0.87;;;;;;;19.75;60.43;100891.47;4965716;28;96724;-61
2023/08/29 08:37:34;;;;;;;0.70;0.57;;;;;;;19.80;59.99;100891.34;4968617;28;97181;-60
2023/08/29 08:40:00;;;;;;;0.80;0.77;;;;;;;19.88;59.96;100899.72;4968970;28;97103;-60
2023/08/29 08:42:28;;;;;;;0.67;0.50;;;;;;;19.97;59.85;100902.78;4969352;28;97472;-61
2023/08/29 08:44:53;;;;;;;1.43;0.50;;;;;;;20.07;59.91;100905.81;4971000;28;96915;-60
2023/08/29 08:47:19;;;;;;;0.70;0.53;;;;;;;20.14;59.78;100905.06;4970759;28;97370;-61
2023/08/29 08:49:45;;;;;;;0.90;0.50;;;;;;;20.15;59.50;100896.16;4965102;28;97051;-60
2023/08/29 08:52:11;;;;;;;0.90;0.67;;;;;;;20.19;59.40;100904.16;4968894;28;97127;-60
2023/08/29 08:54:38;;;;;;;1.60;0.67;;;;;;;20.24;59.30;100903.28;4968714;28;96789;-60
2023/08/29 08:57:04;;;;;;;1.63;0.60;;;;;;;20.33;59.34;100911.13;4965612;28;97524;-60
2023/08/29 08:59:29;;;;;;;1.87;0.60;;;;;;;20.38;59.12;100904.63;4967092;28;97050;-60
2023/08/29 09:01:55;;;;;;;0.60;0.50;;;;;;;20.44;59.03;100904.47;4971815;28;99390;-60
2023/08/29 09:04:22;;;;;;;0.83;0.60;;;;;;;20.58;58.79;100900.19;4967461;28;97263;-60
2023/08/29 09:06:48;;;;;;;0.60;0.50;;;;;;;20.72;58.54;100896.69;4964416;28;97149;-60
2023/08/29 09:09:21;;;;;;;0.80;0.57;;;;;;;20.80;58.62;100896.69;4966605;28;96998;-60
2023/08/29 09:11:55;;;;;;;0.83;0.50;;;;;;;20.86;57.58;100906.38;4966999;28;97063;-60
2023/08/29 09:14:21;;;;;;;0.60;0.50;;;;;;;20.88;58.22;100897.44;4968889;28;97141;-61
2023/08/29 09:16:51;;;;;;;0.70;0.50;;;;;;;20.96;58.04;100905.84;4964834;28;97077;-60
2023/08/29 09:19:17;;;;;;;1.63;0.90;;;;;;;20.92;57.81;100897.81;4967472;28;96958;-60
2023/08/29 09:21:43;;;;;;;0.80;0.57;;;;;;;20.94;57.79;100900.81;4967409;28;97722;-61
2023/08/29 09:24:14;;;;;;;4.20;0.53;;;;;;;20.95;57.03;100896.69;4969256;28;97239;-61
2023/08/29 09:26:41;;;;;;;1.43;0.50;;;;;;;20.97;57.65;100891.28;4967279;28;97162;-60
2023/08/29 09:29:20;;;;;;;0.83;0.73;;;;;;;21.04;56.87;100898.22;4966846;28;97102;-60
2023/08/29 09:31:49;;;;;;;1.73;0.70;;;;;;;21.12;57.24;100898.97;4966068;28;97944;-60
2023/08/29 09:34:28;;;;;;;1.37;0.70;;;;;;;21.17;56.69;100901.56;4966972;28;96790;-60
2023/08/29 09:36:55;;;;;;;0.90;0.63;;;;;;;21.20;56.80;100894.88;4969252;28;97069;-60
2023/08/29 09:39:21;;;;;;;0.60;0.40;;;;;;;21.21;56.68;100899.13;4966630;28;97356;-61
2023/08/29 09:42:06;;;;;;;0.70;0.50;;;;;;;21.24;55.97;100902.88;4966941;28;97177;-61
2023/08/29 09:44:39;;;;;;;1.00;0.60;;;;;;;21.35;55.96;100902.50;4966838;28;96662;-60
2023/08/29 09:47:05;;;;;;;0.80;0.70;;;;;;;21.46;56.47;100890.91;4963605;28;97428;-60
2023/08/29 09:49:42;;;;;;;1.20;0.43;;;;;;;21.53;54.52;100890.16;4966963;28;96641;-61
2023/08/29 09:52:09;;;;;;;1.10;0.60;;;;;;;21.53;55.65;100887.34;4966897;28;97721;-61
2023/08/29 09:54:37;;;;;;;0.77;0.63;;;;;;;21.63;55.19;100891.81;4964620;28;97182;-60
2023/08/29 09:57:05;;;;;;;0.73;0.70;;;;;;;21.65;55.04;100894.03;4963440;28;97076;-60
2023/08/29 09:59:34;;;;;;;1.17;0.60;;;;;;;21.70;55.12;100893.09;4968063;28;97471;-60
2023/08/29 10:02:01;;;;;;;1.63;0.70;;;;;;;21.74;55.07;100899.03;4965333;28;97068;-60
2023/08/29 10:04:30;;;;;;;0.60;0.40;;;;;;;21.78;54.54;100890.25;4969140;28;97073;-60
2023/08/29 10:06:58;;;;;;;0.60;0.50;;;;;;;21.76;54.77;100888.03;4963596;28;97148;-60
2023/08/29 10:09:25;;;;;;;0.93;0.53;;;;;;;21.77;54.97;100883.16;4963828;28;96974;-60
2023/08/29 10:11:52;;;;;;;0.90;0.70;;;;;;;21.75;54.66;100886.53;4968473;28;96931;-59
2023/08/29 10:14:18;;;;;;;0.70;0.53;;;;;;;21.73;54.63;100880.00;4969890;28;97204;-60
2023/08/29 10:16:45;;;;;;;0.70;0.50;;;;;;;21.68;54.54;100881.72;4964185;28;97024;-60
2023/08/29 10:19:12;;;;;;;1.40;0.60;;;;;;;21.69;54.86;100888.78;4970204;28;96987;-60
2023/08/29 10:21:41;;;;;;;0.90;0.60;;;;;;;21.71;54.89;100879.84;4966156;28;97152;-60
2023/08/29 10:24:07;;;;;;;0.80;0.70;;;;;;;21.69;54.52;100885.25;4966924;28;97173;-60
2023/08/29 10:26:34;;;;;;;1.97;0.83;;;;;;;21.70;54.55;100873.47;4967932;28;97366;-60
2023/08/29 10:29:00;;;;;;;1.73;0.60;;;;;;;21.73;54.80;100875.16;4969296;28;96821;-60
2023/08/29 10:31:26;;;;;;;0.70;0.60;;;;;;;21.78;54.50;100874.19;4969882;28;97574;-60
2023/08/29 10:33:55;;;;;;;0.87;0.53;;;;;;;21.82;54.49;100866.16;4962349;28;97330;-60
2023/08/29 10:36:20;;;;;;;0.60;0.50;;;;;;;21.88;54.67;100872.34;4965666;28;96872;-60
2023/08/29 10:38:49;;;;;;;1.20;0.50;;;;;;;21.96;54.43;100870.25;4964792;28;97366;-60
2023/08/29 10:41:14;;;;;;;0.70;0.50;;;;;;;21.97;54.32;100866.13;4967813;28;97617;-60
2023/08/29 10:43:40;;;;;;;0.70;0.60;;;;;;;22.02;54.20;100867.97;4967802;28;97266;-60
2023/08/29 10:46:11;;;;;;;0.90;0.60;;;;;;;22.12;54.21;100863.25;4966898;28;103966;-60
2023/08/29 10:48:41;;;;;;;0.70;0.50;;;;;;;22.22;54.02;100866.94;4965220;28;97407;-60
2023/08/29 10:51:07;;;;;;;1.00;0.73;;;;;;;22.27;53.63;100860.38;4962809;28;97079;-60
2023/08/29 10:53:39;;;;;;;1.97;0.70;;;;;;;22.32;53.32;100862.19;4963216;28;96955;-60
2023/08/29 10:56:07;;;;;;;1.20;0.57;;;;;;;22.32;53.29;100858.66;4965053;28;97154;-61
2023/08/29 10:58:38;;;;;;;0.83;0.60;;;;;;;22.35;53.41;100852.66;4966672;28;97371;-60
2023/08/29 11:01:05;;;;;;;0.70;0.50;;;;;;;22.37;53.27;100860.50;4965500;28;97213;-60
2023/08/29 11:03:50;;;;;;;1.00;0.77;;;;;;;22.39;51.89;100864.22;4967547;28;97060;-61
2023/08/29 11:06:20;;;;;;;0.70;0.63;;;;;;;22.37;52.76;100854.88;4968195;28;96999;-60
2023/08/29 11:08:46;;;;;;;0.70;0.60;;;;;;;22.32;52.96;100850.97;4964390;28;99093;-60
2023/08/29 11:11:18;;;;;;;0.80;0.60;;;;;;;22.28;53.04;100856.25;4965191;28;97149;-60
2023/08/29 11:14:03;;;;;;;0.70;0.60;;;;;;;22.28;52.72;100849.88;4964469;28;96824;-60
2023/08/29 11:16:36;;;;;;;1.30;0.77;;;;;;;22.32;53.07;100872.69;4962694;28;97008;-60
2023/08/29 11:19:13;;;;;;;0.80;0.67;;;;;;;22.36;52.82;100856.22;4964137;28;97146;-60
2023/08/29 11:21:43;;;;;;;1.30;0.60;;;;;;;22.39;53.07;100855.06;4967629;28;97395;-60